Time;durP1;ratioP1;P1;durP2;ratioP2;P2;SDS_P1;SDS_P2;PMS_P1;PMS_P2;Temp;Humidity;BMP_temperature;BMP_pressure;BME280_temperature;BME280_humidity;BME280_pressure;Samples;Min_cycle;Max_cycle;Signal;HPM_P1;HPM_P2
2023/03/21 00:01:56;;;;;;;31.13;17.08;;;;;;;7.31;100.00;98527.50;5053975;28;20033;-68
2023/03/21 00:04:23;;;;;;;29.58;17.52;;;;;;;7.44;100.00;98536.25;5054242;28;20183;-68
2023/03/21 00:06:49;;;;;;;30.90;18.23;;;;;;;6.99;100.00;98500.94;5054007;28;20040;-68
2023/03/21 00:09:15;;;;;;;35.38;16.75;;;;;;;7.19;100.00;98525.44;5053628;28;20411;-68
2023/03/21 00:11:40;;;;;;;31.73;18.00;;;;;;;7.18;100.00;98501.03;5053281;28;20494;-68
2023/03/21 00:14:07;;;;;;;31.88;17.40;;;;;;;7.04;100.00;98542.00;5051470;28;20029;-68
2023/03/21 00:16:34;;;;;;;31.73;16.63;;;;;;;7.16;100.00;98559.22;5051953;28;20036;-68
2023/03/21 00:19:02;;;;;;;23.95;16.27;;;;;;;7.23;100.00;98601.06;5053521;28;20495;-68
2023/03/21 00:21:31;;;;;;;31.45;17.48;;;;;;;7.08;100.00;98578.06;5052212;28;20037;-68
2023/03/21 00:23:57;;;;;;;25.38;16.27;;;;;;;7.29;100.00;98620.25;5052535;28;20463;-68
2023/03/21 00:26:23;;;;;;;25.15;16.50;;;;;;;6.94;100.00;98518.78;5053651;28;20033;-68
2023/03/21 00:28:49;;;;;;;28.70;17.15;;;;;;;7.49;100.00;98567.22;5053475;28;20032;-68
2023/03/21 00:31:15;;;;;;;32.22;16.73;;;;;;;7.15;100.00;98566.88;5053272;28;20484;-68
2023/03/21 00:33:40;;;;;;;26.42;16.50;;;;;;;7.07;100.00;98627.78;5053416;28;20115;-68
2023/03/21 00:36:08;;;;;;;28.17;15.95;;;;;;;7.57;100.00;98621.69;5053160;28;20155;-69
2023/03/21 00:38:34;;;;;;;28.50;16.23;;;;;;;7.46;100.00;98623.78;5051194;28;20083;-72
2023/03/21 00:41:04;;;;;;;27.98;16.55;;;;;;;7.21;100.00;98584.31;5053261;28;20479;-68
2023/03/21 00:43:29;;;;;;;26.60;16.27;;;;;;;7.33;100.00;98634.41;5051688;28;20048;-68
2023/03/21 00:45:57;;;;;;;25.50;16.25;;;;;;;7.24;100.00;98637.25;5051774;28;20389;-68
2023/03/21 00:48:23;;;;;;;32.88;17.73;;;;;;;6.76;100.00;98614.56;5052944;28;20487;-68
2023/03/21 00:50:51;;;;;;;29.10;16.52;;;;;;;7.14;100.00;98689.00;5051528;28;20072;-68
2023/03/21 00:53:16;;;;;;;29.50;16.38;;;;;;;7.10;100.00;98690.81;5052467;28;20406;-68
2023/03/21 00:55:42;;;;;;;28.83;17.00;;;;;;;6.89;100.00;98659.53;5051767;28;20043;-68
2023/03/21 00:58:07;;;;;;;25.88;17.13;;;;;;;7.10;100.00;98713.56;5052790;28;20062;-68
2023/03/21 01:00:36;;;;;;;27.55;15.80;;;;;;;7.50;100.00;98675.91;5052670;28;20179;-69
2023/03/21 01:03:06;;;;;;;27.30;16.48;;;;;;;7.70;100.00;98601.81;5051228;28;20044;-68
2023/03/21 01:08:20;;;;;;;31.08;16.55;;;;;;;7.49;100.00;98481.25;5052296;28;20144;-68
2023/03/21 01:10:48;;;;;;;32.50;17.08;;;;;;;7.31;100.00;98548.53;5052588;28;20120;-67
2023/03/21 01:13:16;;;;;;;28.48;17.05;;;;;;;7.03;100.00;98513.38;5051533;28;20120;-68
2023/03/21 01:15:46;;;;;;;26.42;17.98;;;;;;;6.57;100.00;98493.22;5052386;28;20414;-69
2023/03/21 01:18:12;;;;;;;33.33;18.08;;;;;;;6.88;100.00;98549.31;5052667;28;20032;-68
2023/03/21 01:20:40;;;;;;;28.23;17.45;;;;;;;7.10;100.00;98518.19;5052500;28;20033;-69
2023/03/21 01:23:06;;;;;;;29.77;17.40;;;;;;;6.93;100.00;98521.38;5052478;28;20036;-67
2023/03/21 01:25:32;;;;;;;34.45;17.67;;;;;;;6.87;100.00;98524.13;5052598;28;20052;-68
2023/03/21 01:27:57;;;;;;;32.70;17.77;;;;;;;6.50;100.00;98537.22;5052173;28;20120;-68
2023/03/21 01:30:23;;;;;;;29.50;17.90;;;;;;;6.31;100.00;98533.69;5051114;28;20420;-68
2023/03/21 01:32:49;;;;;;;30.63;17.30;;;;;;;6.58;100.00;98600.03;5051874;28;20021;-68
2023/03/21 01:35:14;;;;;;;30.73;16.92;;;;;;;6.29;100.00;98585.91;5052142;28;20499;-68
2023/03/21 01:37:40;;;;;;;35.25;17.52;;;;;;;6.31;100.00;98609.38;5052069;28;20481;-68
2023/03/21 01:40:11;;;;;;;28.92;17.23;;;;;;;6.37;100.00;98662.19;5052247;28;20108;-68
2023/03/21 01:42:38;;;;;;;29.43;15.97;;;;;;;6.35;100.00;98714.41;5052243;28;20419;-67
2023/03/21 01:45:26;;;;;;;28.02;16.92;;;;;;;6.11;100.00;98732.81;5052062;28;20035;-68
2023/03/21 01:47:51;;;;;;;29.85;17.42;;;;;;;6.44;100.00;98845.34;5050011;28;20059;-68
2023/03/21 01:50:20;;;;;;;31.83;17.40;;;;;;;6.42;100.00;98872.31;5051783;28;20060;-67
2023/03/21 01:52:48;;;;;;;28.38;16.77;;;;;;;6.34;100.00;98868.38;5051849;28;20028;-67
2023/03/21 01:55:17;;;;;;;28.92;17.10;;;;;;;6.52;100.00;98934.28;5050645;28;20029;-67
2023/03/21 01:57:52;;;;;;;29.30;18.30;;;;;;;6.61;100.00;98928.16;5051380;28;20487;-67
2023/03/21 02:00:23;;;;;;;34.05;16.83;;;;;;;5.96;100.00;98869.47;5050521;28;20169;-68
2023/03/21 02:02:56;;;;;;;29.63;16.70;;;;;;;6.49;100.00;98969.72;5051995;28;20029;-68
2023/03/21 02:05:28;;;;;;;32.55;17.05;;;;;;;6.57;100.00;98998.09;5051654;28;20119;-67
2023/03/21 02:07:53;;;;;;;21.10;12.13;;;;;;;6.44;100.00;98966.47;5049112;28;20418;-68
2023/03/21 02:10:19;;;;;;;31.08;17.27;;;;;;;6.58;100.00;99001.44;5050973;28;20029;-68
2023/03/21 02:12:45;;;;;;;32.55;17.13;;;;;;;6.61;100.00;99040.06;5049830;28;20040;-68
2023/03/21 02:15:11;;;;;;;33.28;17.52;;;;;;;6.41;100.00;99072.59;5050913;28;20021;-71
2023/03/21 02:18:03;;;;;;;33.58;16.88;;;;;;;6.45;100.00;99116.22;5051388;28;20082;-68
2023/03/21 02:21:07;;;;;;;29.33;16.17;;;;;;;7.15;100.00;99164.00;5049969;28;20033;-68
2023/03/21 02:23:50;;;;;;;24.98;16.30;;;;;;;7.05;100.00;99177.78;5042546;28;20503;-68
2023/03/21 02:26:18;;;;;;;26.50;16.10;;;;;;;7.03;100.00;99210.66;5051284;28;20025;-68
2023/03/21 02:29:02;;;;;;;39.08;16.50;;;;;;;6.90;100.00;99219.44;5051106;28;20079;-68
2023/03/21 02:31:52;;;;;;;30.75;15.70;;;;;;;7.03;100.00;99240.97;5051080;28;20087;-69
2023/03/21 02:34:36;;;;;;;29.45;15.07;;;;;;;7.12;100.00;99274.44;5050077;28;20123;-68
2023/03/21 02:37:22;;;;;;;28.20;14.07;;;;;;;7.29;100.00;99306.00;5049468;28;20395;-68
2023/03/21 02:40:09;;;;;;;32.65;15.98;;;;;;;7.11;100.00;99319.09;5049296;28;20060;-68
2023/03/21 02:42:53;;;;;;;28.45;15.07;;;;;;;7.03;100.00;99337.00;5051292;28;20029;-68
2023/03/21 02:45:35;;;;;;;28.45;15.10;;;;;;;7.24;100.00;99365.97;5051201;28;20025;-67
2023/03/21 02:48:09;;;;;;;32.28;16.08;;;;;;;6.98;100.00;99373.34;5049489;28;20033;-67
2023/03/21 02:50:40;;;;;;;29.50;15.48;;;;;;;7.01;100.00;99404.41;5049111;28;20127;-68
2023/03/21 02:53:08;;;;;;;34.03;15.88;;;;;;;6.96;100.00;99420.53;5050848;28;20029;-68
2023/03/21 02:55:36;;;;;;;34.08;16.25;;;;;;;7.19;100.00;99402.34;5050767;28;20048;-68
2023/03/21 02:58:03;;;;;;;32.97;16.45;;;;;;;7.01;100.00;99465.06;5050723;28;20036;-68
2023/03/21 03:00:31;;;;;;;30.10;16.20;;;;;;;7.19;100.00;99503.44;5050457;28;20507;-68
2023/03/21 03:02:57;;;;;;;31.05;16.17;;;;;;;6.71;100.00;99452.25;5049152;28;20033;-67
2023/03/21 03:05:29;;;;;;;30.05;17.02;;;;;;;7.07;100.00;99534.03;5050069;28;20033;-68
2023/03/21 03:08:24;;;;;;;31.88;16.45;;;;;;;7.14;100.00;99541.44;5050565;28;20040;-68
2023/03/21 03:11:19;;;;;;;28.55;15.63;;;;;;;7.45;100.00;99561.81;5050262;28;20483;-68
2023/03/21 03:14:15;;;;;;;37.60;17.00;;;;;;;7.24;100.00;99592.63;5049078;28;20501;-70
2023/03/21 03:17:10;;;;;;;30.83;16.83;;;;;;;7.03;100.00;99551.75;5046205;28;20048;-68
2023/03/21 03:19:51;;;;;;;32.00;16.50;;;;;;;7.42;100.00;99585.50;5048343;28;20131;-68
2023/03/21 03:22:31;;;;;;;35.78;15.70;;;;;;;7.55;100.00;99597.00;5050422;28;20098;-69
2023/03/21 03:25:04;;;;;;;31.08;16.55;;;;;;;7.26;100.00;99637.25;5041850;28;20032;-69
2023/03/21 03:27:35;;;;;;;30.52;16.77;;;;;;;7.01;100.00;99631.81;5048989;28;20460;-68
2023/03/21 03:30:04;;;;;;;35.27;16.93;;;;;;;6.84;100.00;99660.78;5050097;28;20032;-69
2023/03/21 03:32:54;;;;;;;30.73;17.30;;;;;;;7.01;100.00;99673.97;5032553;28;20052;-68
2023/03/21 03:35:21;;;;;;;39.45;17.85;;;;;;;6.89;100.00;99642.16;5063462;28;20036;-68
2023/03/21 03:37:53;;;;;;;35.55;17.40;;;;;;;7.37;100.00;99668.19;5048764;28;20059;-67
2023/03/21 03:40:44;;;;;;;38.03;17.83;;;;;;;6.97;100.00;99637.00;5049571;28;20503;-68
2023/03/21 03:43:20;;;;;;;40.50;19.25;;;;;;;7.23;100.00;99712.31;5047939;28;20119;-67
2023/03/21 03:46:11;;;;;;;36.50;19.00;;;;;;;7.05;100.00;99718.53;5048810;28;20028;-68
2023/03/21 03:48:45;;;;;;;33.53;17.73;;;;;;;7.08;100.00;99726.06;5050097;28;20400;-69
2023/03/21 03:51:30;;;;;;;40.88;19.55;;;;;;;6.78;100.00;99741.72;5047110;28;20029;-68
2023/03/21 03:54:01;;;;;;;36.35;19.08;;;;;;;6.97;100.00;99721.19;5035241;28;20477;-67
2023/03/21 03:56:28;;;;;;;33.20;18.98;;;;;;;6.80;100.00;99730.75;5050178;28;20039;-71
2023/03/21 03:58:56;;;;;;;32.60;18.45;;;;;;;6.57;100.00;99735.34;5049992;28;20025;-69
2023/03/21 04:01:21;;;;;;;33.63;18.23;;;;;;;6.97;100.00;99775.97;5049654;28;20041;-70
2023/03/21 04:03:48;;;;;;;35.47;17.92;;;;;;;7.01;100.00;99807.91;5049691;28;20063;-69
2023/03/21 04:06:14;;;;;;;37.95;18.08;;;;;;;6.72;100.00;99764.56;5050551;28;20035;-69
2023/03/21 04:08:39;;;;;;;33.78;17.15;;;;;;;6.93;100.00;99830.75;5050133;28;20037;-69
2023/03/21 04:11:05;;;;;;;36.33;18.67;;;;;;;7.16;100.00;99844.69;5049524;28;20040;-68
2023/03/21 04:13:32;;;;;;;37.05;20.80;;;;;;;7.05;100.00;99919.88;5049572;28;20033;-68
2023/03/21 04:15:58;;;;;;;36.20;20.88;;;;;;;7.01;100.00;99924.94;5049633;28;20041;-68
2023/03/21 04:18:25;;;;;;;36.35;19.73;;;;;;;7.22;100.00;99949.09;5049230;28;20029;-69
2023/03/21 04:20:50;;;;;;;35.45;19.50;;;;;;;7.14;100.00;99952.56;5049099;28;20037;-67
2023/03/21 04:23:18;;;;;;;36.90;19.98;;;;;;;6.97;100.00;99957.88;5049106;28;20055;-69
2023/03/21 04:25:44;;;;;;;35.22;20.20;;;;;;;6.37;100.00;99930.88;5048187;28;20032;-68
2023/03/21 04:28:10;;;;;;;31.30;19.77;;;;;;;6.54;100.00;99955.06;5048150;28;20131;-68
2023/03/21 04:30:36;;;;;;;35.28;18.95;;;;;;;6.25;100.00;99934.38;5049214;28;20033;-68
2023/03/21 04:33:01;;;;;;;35.40;19.45;;;;;;;6.47;100.00;99962.75;5051738;28;20483;-68
2023/03/21 04:35:27;;;;;;;35.72;20.55;;;;;;;6.97;100.00;100047.16;5051551;28;20036;-69
2023/03/21 04:37:53;;;;;;;36.40;20.50;;;;;;;6.99;100.00;100060.59;5052463;28;20029;-69
2023/03/21 04:40:18;;;;;;;37.22;20.52;;;;;;;6.97;100.00;100058.97;5053100;28;20025;-67
2023/03/21 04:42:46;;;;;;;42.20;19.92;;;;;;;7.21;100.00;100086.44;5051770;28;20132;-67
2023/03/21 04:45:12;;;;;;;36.03;21.40;;;;;;;6.96;100.00;100121.28;5052457;28;20040;-69
2023/03/21 04:47:37;;;;;;;39.83;20.70;;;;;;;6.37;100.00;100040.28;5053279;28;20459;-68
2023/03/21 04:50:03;;;;;;;27.75;17.08;;;;;;;9.43;100.00;100105.44;5052916;28;20125;-67
2023/03/21 04:52:29;;;;;;;30.30;20.33;;;;;;;6.82;100.00;100094.50;5053292;28;20126;-68
2023/03/21 04:54:55;;;;;;;38.20;20.75;;;;;;;6.44;100.00;100126.91;5051730;28;20068;-68
2023/03/21 04:57:20;;;;;;;35.88;21.27;;;;;;;6.34;100.00;100127.84;5053429;28;20032;-70
2023/03/21 04:59:46;;;;;;;42.47;20.80;;;;;;;6.29;100.00;100139.63;5050320;28;20052;-69
2023/03/21 05:02:12;;;;;;;33.08;20.35;;;;;;;7.00;100.00;100206.34;5052587;28;20029;-69
2023/03/21 05:04:38;;;;;;;37.40;20.83;;;;;;;6.81;100.00;100204.00;5052819;28;20454;-68
2023/03/21 05:07:04;;;;;;;38.60;20.42;;;;;;;6.79;100.00;100220.88;5052620;28;20082;-69
2023/03/21 05:09:29;;;;;;;31.25;20.48;;;;;;;7.01;100.00;100222.34;5052038;28;20068;-70
2023/03/21 05:11:55;;;;;;;35.35;20.38;;;;;;;6.73;100.00;100218.38;5052211;28;20095;-69
2023/03/21 05:14:24;;;;;;;34.95;22.13;;;;;;;6.79;100.00;100204.00;5049798;28;20466;-69
2023/03/21 05:16:53;;;;;;;37.33;22.25;;;;;;;7.13;100.00;100231.50;5050596;28;20036;-68
2023/03/21 05:19:39;;;;;;;39.75;21.50;;;;;;;7.26;100.00;100254.09;5052368;28;20033;-69
2023/03/21 05:22:07;;;;;;;38.38;21.13;;;;;;;7.40;100.00;100264.06;5052427;28;20040;-67
2023/03/21 05:24:33;;;;;;;33.42;20.27;;;;;;;6.90;100.00;100219.91;5052465;28;20025;-69
2023/03/21 05:27:01;;;;;;;34.20;20.55;;;;;;;6.69;100.00;100183.91;5052342;28;20051;-69
2023/03/21 05:29:31;;;;;;;36.55;19.20;;;;;;;7.71;100.00;100237.56;5052402;28;20033;-69
2023/03/21 05:31:58;;;;;;;37.65;21.25;;;;;;;7.36;100.00;100244.72;5053038;28;20104;-69
2023/03/21 05:34:24;;;;;;;41.97;20.70;;;;;;;7.48;100.00;100250.50;5051907;28;20045;-70
2023/03/21 05:36:50;;;;;;;35.53;20.65;;;;;;;7.81;100.00;100303.22;5039946;28;20044;-71
2023/03/21 05:39:16;;;;;;;35.67;20.90;;;;;;;7.82;100.00;100312.47;5051284;28;20569;-71
2023/03/21 05:41:41;;;;;;;32.70;20.30;;;;;;;7.33;100.00;100227.06;5051142;28;20653;-71
2023/03/21 05:44:06;;;;;;;30.42;19.45;;;;;;;7.56;100.00;100313.63;5052949;28;20116;-70
2023/03/21 05:46:32;;;;;;;29.20;18.25;;;;;;;7.12;100.00;100222.22;5050373;28;20121;-72
2023/03/21 05:48:57;;;;;;;32.53;19.60;;;;;;;7.67;100.00;100266.28;5051135;28;20075;-72
2023/03/21 05:51:23;;;;;;;29.27;18.63;;;;;;;8.09;100.00;100323.97;5051219;28;20057;-70
2023/03/21 05:53:48;;;;;;;28.02;18.13;;;;;;;7.78;100.00;100279.66;5050295;28;20090;-71
2023/03/21 05:56:14;;;;;;;31.85;19.27;;;;;;;7.98;100.00;100335.94;5052430;28;20032;-71
2023/03/21 05:58:39;;;;;;;27.77;18.52;;;;;;;8.16;100.00;100325.56;5052825;28;20040;-71
2023/03/21 06:01:05;;;;;;;29.95;19.58;;;;;;;8.13;100.00;100393.13;5052371;28;20069;-71
2023/03/21 06:03:31;;;;;;;28.65;18.42;;;;;;;8.07;100.00;100403.34;5051927;28;20020;-72
2023/03/21 06:05:56;;;;;;;31.42;18.95;;;;;;;8.30;100.00;100409.03;5052359;28;20065;-71
2023/03/21 06:08:23;;;;;;;34.83;18.65;;;;;;;7.96;100.00;100377.31;5050971;28;20112;-71
2023/03/21 06:10:54;;;;;;;28.90;18.92;;;;;;;8.20;100.00;100427.69;5050861;28;20515;-71
2023/03/21 06:13:20;;;;;;;28.42;18.13;;;;;;;8.70;100.00;100427.91;5052473;28;20029;-71
2023/03/21 06:15:45;;;;;;;25.73;16.60;;;;;;;7.97;100.00;100357.03;5051447;28;20043;-71
2023/03/21 06:18:11;;;;;;;26.13;16.52;;;;;;;8.82;100.00;100442.97;5051461;28;20041;-70
2023/03/21 06:20:36;;;;;;;28.33;16.83;;;;;;;8.34;100.00;100419.09;5051222;28;20031;-71
2023/03/21 06:23:02;;;;;;;25.40;16.85;;;;;;;8.81;100.00;100446.38;5050893;28;20116;-71
2023/03/21 06:25:27;;;;;;;25.92;17.00;;;;;;;9.09;100.00;100394.38;5051420;28;20029;-72
2023/03/21 06:27:52;;;;;;;24.67;16.35;;;;;;;9.49;100.00;100447.88;5051051;28;20039;-70
2023/03/21 06:30:18;;;;;;;27.55;16.40;;;;;;;9.25;100.00;100398.38;5051321;28;20037;-72
2023/03/21 06:32:43;;;;;;;24.50;16.52;;;;;;;9.99;100.00;100411.47;5052035;28;20036;-73
2023/03/21 06:35:09;;;;;;;23.90;15.38;;;;;;;9.83;100.00;100459.16;5051678;28;20029;-73
2023/03/21 06:37:34;;;;;;;27.95;15.60;;;;;;;9.52;100.00;100453.78;5051964;28;20032;-73
2023/03/21 06:40:00;;;;;;;24.77;15.52;;;;;;;9.17;100.00;100481.34;5051285;28;20029;-72
2023/03/21 06:42:25;;;;;;;29.90;15.90;;;;;;;9.30;100.00;100432.13;5051976;28;20029;-73
2023/03/21 06:44:51;;;;;;;24.92;15.88;;;;;;;9.42;100.00;100477.63;5051589;28;20033;-73
2023/03/21 06:47:16;;;;;;;25.90;15.10;;;;;;;9.18;100.00;100456.84;5051794;28;20033;-73
2023/03/21 06:49:42;;;;;;;25.95;16.42;;;;;;;9.70;100.00;100490.72;5051339;28;20033;-73
2023/03/21 06:52:08;;;;;;;24.88;15.35;;;;;;;9.82;100.00;100499.81;5051990;28;20048;-73
2023/03/21 06:54:35;;;;;;;24.17;15.40;;;;;;;10.02;100.00;100490.16;5051329;28;20151;-71
2023/03/21 06:57:00;;;;;;;23.42;15.02;;;;;;;10.63;100.00;100500.91;5047853;28;20040;-72
2023/03/21 06:59:25;;;;;;;19.77;13.57;;;;;;;10.70;100.00;100511.75;5031177;28;20033;-72
2023/03/21 07:01:51;;;;;;;19.42;14.35;;;;;;;10.79;100.00;100481.91;5031466;28;20427;-73
2023/03/21 07:04:16;;;;;;;23.33;15.20;;;;;;;10.81;100.00;100525.13;5031244;28;20159;-72
2023/03/21 07:06:42;;;;;;;21.88;13.70;;;;;;;11.51;100.00;100519.34;5031374;28;20107;-73
2023/03/21 07:09:07;;;;;;;23.70;14.35;;;;;;;11.89;100.00;100549.88;5031001;28;20033;-73
2023/03/21 07:11:35;;;;;;;20.65;13.63;;;;;;;11.31;100.00;100573.22;5030149;28;20037;-73
2023/03/21 07:14:01;;;;;;;22.27;13.85;;;;;;;11.74;100.00;100585.91;5031230;28;20025;-74
2023/03/21 07:16:26;;;;;;;19.15;13.68;;;;;;;12.41;100.00;100583.38;5030011;28;20476;-73
2023/03/21 07:18:52;;;;;;;18.15;13.30;;;;;;;12.07;100.00;100596.13;5030015;28;20496;-73
2023/03/21 07:21:17;;;;;;;25.35;14.40;;;;;;;12.14;100.00;100561.16;5030218;28;20080;-72
2023/03/21 07:23:43;;;;;;;21.75;14.27;;;;;;;12.25;100.00;100574.44;5030034;28;20526;-73
2023/03/21 07:26:09;;;;;;;23.88;15.65;;;;;;;11.90;100.00;100617.78;5031500;28;20034;-73
2023/03/21 07:28:34;;;;;;;22.30;15.40;;;;;;;12.18;100.00;100632.38;5031387;28;20455;-74
2023/03/21 07:31:03;;;;;;;20.85;15.50;;;;;;;12.50;100.00;100643.53;5030262;28;20052;-73
2023/03/21 07:33:30;;;;;;;24.88;16.10;;;;;;;12.39;100.00;100600.44;5048298;28;20056;-73
2023/03/21 07:35:56;;;;;;;21.92;16.45;;;;;;;12.60;100.00;100650.91;5049608;28;20127;-73
2023/03/21 07:38:22;;;;;;;24.40;16.77;;;;;;;11.83;100.00;100645.13;5050485;28;20052;-74
2023/03/21 07:40:48;;;;;;;22.38;16.73;;;;;;;12.14;100.00;100661.38;5050935;28;20029;-74
2023/03/21 07:43:14;;;;;;;22.70;16.00;;;;;;;12.74;100.00;100647.97;5049852;28;20025;-73
2023/03/21 07:45:41;;;;;;;22.63;16.05;;;;;;;12.88;100.00;100623.78;5050971;28;20033;-74
2023/03/21 07:48:07;;;;;;;23.67;16.60;;;;;;;12.94;100.00;100661.91;5050754;28;20025;-74
2023/03/21 07:50:32;;;;;;;29.10;16.77;;;;;;;12.37;100.00;100682.94;5051321;28;20033;-73
2023/03/21 07:52:58;;;;;;;30.10;15.77;;;;;;;12.83;100.00;100653.72;5051034;28;20032;-73
2023/03/21 07:55:24;;;;;;;24.40;16.05;;;;;;;12.13;100.00;100636.78;5050933;28;20075;-72
2023/03/21 07:57:50;;;;;;;26.75;15.32;;;;;;;12.52;100.00;100672.38;5050487;28;20120;-73
2023/03/21 08:00:21;;;;;;;25.92;16.25;;;;;;;12.54;100.00;100674.00;5051166;28;20080;-72
2023/03/21 08:02:53;;;;;;;23.85;16.25;;;;;;;12.58;100.00;100639.88;5051271;28;20035;-73
2023/03/21 08:05:19;;;;;;;;;;;;;;;13.76;100.00;100674.94;5052542;28;20071;-72
2023/03/21 08:07:45;;;;;;;25.73;16.73;;;;;;;12.36;100.00;100630.28;5053398;28;19913;-73
2023/03/21 08:10:10;;;;;;;26.08;15.95;;;;;;;12.27;100.00;100631.34;5054545;28;20028;-73
2023/03/21 08:12:36;;;;;;;24.50;16.00;;;;;;;12.75;100.00;100636.91;5054417;28;20025;-73
2023/03/21 08:15:01;;;;;;;28.73;16.17;;;;;;;13.32;100.00;100686.44;5052781;28;20033;-69
2023/03/21 08:17:26;;;;;;;23.98;16.08;;;;;;;13.28;100.00;100641.44;5053435;28;20051;-71
2023/03/21 08:19:52;;;;;;;25.92;15.30;;;;;;;13.19;100.00;100691.91;5053803;28;20037;-72
2023/03/21 08:22:17;;;;;;;29.80;18.42;;;;;;;13.30;100.00;100652.44;5054262;28;20033;-69
2023/03/21 08:24:43;;;;;;;23.58;16.17;;;;;;;13.26;100.00;100693.41;5053500;28;20037;-70
2023/03/21 08:27:08;;;;;;;31.50;17.40;;;;;;;13.10;100.00;100680.22;5052702;28;20029;-71
2023/03/21 08:29:39;;;;;;;23.02;15.23;;;;;;;12.78;100.00;100711.66;5053654;28;20415;-70
2023/03/21 08:32:05;;;;;;;23.98;16.58;;;;;;;12.14;100.00;100663.09;5053873;28;20033;-71
2023/03/21 08:34:30;;;;;;;28.75;16.73;;;;;;;12.73;100.00;100690.53;5053563;28;20033;-70
2023/03/21 08:36:56;;;;;;;24.77;16.40;;;;;;;13.66;100.00;100681.19;5053613;28;20476;-71
2023/03/21 08:39:23;;;;;;;24.73;17.48;;;;;;;13.01;100.00;100686.38;5051392;28;20568;-70
2023/03/21 08:41:49;;;;;;;28.38;17.38;;;;;;;13.36;100.00;100680.34;5032656;28;20040;-70
2023/03/21 08:44:15;;;;;;;35.13;19.25;;;;;;;12.96;100.00;100672.06;5035293;28;20021;-69
2023/03/21 08:46:41;;;;;;;29.40;18.77;;;;;;;13.26;100.00;100650.84;5050943;28;20037;-69
2023/03/21 08:49:07;;;;;;;28.25;19.42;;;;;;;13.61;100.00;100683.03;5050145;28;20075;-70
2023/03/21 08:51:32;;;;;;;35.22;19.70;;;;;;;14.15;100.00;100673.72;5051910;28;20025;-70
2023/03/21 08:53:58;;;;;;;29.45;18.60;;;;;;;14.28;100.00;100697.22;5052842;28;20045;-69
2023/03/21 08:56:23;;;;;;;26.42;18.25;;;;;;;13.83;100.00;100707.09;5051543;28;20032;-70
2023/03/21 08:58:49;;;;;;;25.77;17.38;;;;;;;13.78;100.00;100688.50;5051828;28;20029;-69
2023/03/21 09:01:14;;;;;;;27.77;18.05;;;;;;;13.41;100.00;100655.50;5050498;28;20126;-70
2023/03/21 09:03:41;;;;;;;25.20;17.83;;;;;;;13.80;100.00;100643.28;5051301;28;20025;-69
2023/03/21 09:06:09;;;;;;;34.05;22.40;;;;;;;14.02;100.00;100646.03;5052979;28;20113;-69
2023/03/21 09:08:36;;;;;;;32.58;21.30;;;;;;;14.41;100.00;100686.56;5052652;28;20052;-69
2023/03/21 09:11:02;;;;;;;33.95;20.75;;;;;;;14.43;100.00;100678.81;5052910;28;20040;-69
2023/03/21 09:13:27;;;;;;;29.00;20.05;;;;;;;13.93;100.00;100683.78;5051220;28;20032;-69
2023/03/21 09:15:54;;;;;;;23.92;17.77;;;;;;;13.75;100.00;100679.22;5051290;28;20036;-71
2023/03/21 09:18:21;;;;;;;26.17;17.60;;;;;;;13.46;100.00;100680.94;5051230;28;20032;-70
2023/03/21 09:20:49;;;;;;;24.77;19.17;;;;;;;13.53;100.00;100650.06;5051471;28;20423;-69
2023/03/21 09:23:15;;;;;;;27.83;17.95;;;;;;;13.75;100.00;100668.97;5051542;28;20397;-69
2023/03/21 09:25:46;;;;;;;24.80;17.25;;;;;;;14.49;100.00;100665.84;5052257;28;20044;-68
2023/03/21 09:28:13;;;;;;;26.30;16.67;;;;;;;14.72;100.00;100656.50;5051557;28;20454;-68
2023/03/21 09:30:38;;;;;;;22.77;15.57;;;;;;;14.53;100.00;100645.22;5052092;28;20033;-69
2023/03/21 09:33:11;;;;;;;24.90;19.33;;;;;;;14.45;100.00;100677.88;5051981;28;20025;-68
2023/03/21 09:35:44;;;;;;;22.45;17.10;;;;;;;14.48;100.00;100656.50;5050820;28;20028;-69
2023/03/21 09:38:09;;;;;;;23.77;16.52;;;;;;;14.87;100.00;100670.50;5052601;28;20025;-70
2023/03/21 09:41:03;;;;;;;24.35;16.60;;;;;;;15.19;100.00;100685.56;5051889;28;20544;-69
2023/03/21 09:44:07;;;;;;;23.70;18.00;;;;;;;15.47;100.00;100676.03;5052326;28;20056;-70
2023/03/21 09:46:48;;;;;;;24.17;16.65;;;;;;;15.23;100.00;100674.31;5052318;28;20028;-68
2023/03/21 09:49:30;;;;;;;25.40;17.42;;;;;;;15.09;100.00;100684.25;5051451;28;20040;-70
2023/03/21 09:51:58;;;;;;;21.75;16.23;;;;;;;14.74;100.00;100621.44;5051815;28;20125;-69
2023/03/21 09:54:39;;;;;;;23.50;17.52;;;;;;;15.14;100.00;100641.34;5050243;28;20170;-70
2023/03/21 09:57:32;;;;;;;23.73;17.33;;;;;;;14.66;100.00;100613.19;5050625;28;20029;-68
2023/03/21 10:00:07;;;;;;;21.80;15.70;;;;;;;15.23;100.00;100665.81;5051312;28;20049;-69
2023/03/21 10:02:39;;;;;;;25.67;16.95;;;;;;;14.91;100.00;100627.69;5049838;28;20025;-69
2023/03/21 10:05:14;;;;;;;25.35;17.08;;;;;;;14.68;100.00;100651.53;5051536;28;20032;-69
2023/03/21 10:07:46;;;;;;;23.35;16.55;;;;;;;14.80;100.00;100592.22;5051404;28;20107;-69
2023/03/21 10:10:23;;;;;;;23.73;16.52;;;;;;;15.43;100.00;100671.09;5050861;28;20415;-71
2023/03/21 10:12:52;;;;;;;21.00;16.23;;;;;;;15.22;100.00;100664.97;5047748;28;20045;-70
2023/03/21 10:15:20;;;;;;;22.98;16.65;;;;;;;15.27;100.00;100623.81;5048778;28;20044;-70
2023/03/21 10:18:00;;;;;;;22.30;16.08;;;;;;;15.45;100.00;100633.44;5050433;28;20522;-69
2023/03/21 10:20:30;;;;;;;22.50;15.70;;;;;;;15.36;100.00;100601.25;4689006;28;10000476;-72
2023/03/21 10:22:59;;;;;;;23.75;15.85;;;;;;;15.82;100.00;100653.38;5027796;28;20276;-71
2023/03/21 10:25:34;;;;;;;21.23;16.02;;;;;;;15.21;100.00;100598.44;5030126;28;20025;-72
2023/03/21 10:28:02;;;;;;;23.25;16.10;;;;;;;15.36;100.00;100602.97;5029317;28;20029;-71
2023/03/21 10:30:49;;;;;;;22.27;15.40;;;;;;;16.09;100.00;100614.66;5030162;28;20404;-70
2023/03/21 10:33:25;;;;;;;22.30;15.75;;;;;;;15.76;100.00;100620.28;5029233;28;20061;-71
2023/03/21 10:35:54;;;;;;;20.60;15.65;;;;;;;15.81;100.00;100626.03;5025148;28;20041;-71
2023/03/21 10:38:24;;;;;;;21.75;15.77;;;;;;;16.14;100.00;100624.72;5028168;28;20061;-71
2023/03/21 10:40:50;;;;;;;22.92;16.65;;;;;;;15.97;100.00;100622.81;5027774;28;20033;-70
2023/03/21 10:43:36;;;;;;;18.73;15.00;;;;;;;15.91;100.00;100576.06;5028597;28;20104;-71
2023/03/21 10:46:20;;;;;;;22.08;14.98;;;;;;;16.15;100.00;100611.84;5029583;28;20131;-70
2023/03/21 10:48:51;;;;;;;23.55;14.45;;;;;;;16.29;100.00;100618.97;5030245;28;20048;-71
2023/03/21 10:51:25;;;;;;;20.08;14.60;;;;;;;15.93;100.00;100564.00;5031182;28;20025;-70
2023/03/21 10:53:55;;;;;;;20.95;14.30;;;;;;;15.86;100.00;100575.44;5029212;28;20595;-69
2023/03/21 10:56:30;;;;;;;17.42;13.70;;;;;;;16.36;100.00;100607.56;5028640;28;20040;-71
2023/03/21 10:58:58;;;;;;;22.73;14.50;;;;;;;16.48;100.00;100556.56;5030581;28;20159;-70
2023/03/21 11:01:54;;;;;;;20.00;14.35;;;;;;;16.89;100.00;100577.88;5029839;28;20052;-70
2023/03/21 11:04:28;;;;;;;19.75;13.50;;;;;;;16.39;100.00;100518.44;5030011;28;20084;-72
2023/03/21 11:06:56;;;;;;;20.92;14.05;;;;;;;16.74;100.00;100558.00;5030194;28;20123;-71
2023/03/21 11:09:41;;;;;;;19.80;14.18;;;;;;;16.18;100.00;100554.44;5029036;28;20033;-71
2023/03/21 11:12:12;;;;;;;22.42;14.02;;;;;;;16.33;100.00;100570.03;5029370;28;20459;-70
2023/03/21 11:14:49;;;;;;;21.85;14.27;;;;;;;16.34;100.00;100555.47;5029281;28;20065;-70
2023/03/21 11:17:15;;;;;;;22.25;14.82;;;;;;;16.52;100.00;100575.22;5029843;28;20425;-71
2023/03/21 11:19:45;;;;;;;22.25;14.75;;;;;;;16.54;100.00;100545.19;5030203;28;20038;-70
2023/03/21 11:22:11;;;;;;;19.80;14.52;;;;;;;16.17;100.00;100506.56;5028071;28;20436;-71
2023/03/21 11:24:38;;;;;;;24.00;15.35;;;;;;;16.49;100.00;100544.56;5030025;28;20112;-70